FKYS/NSI METAR and TAF weather

Enter ICAO airport designator
Station Type Date Time Source
FKYS METAR 2020/02/20 23:00 UTC NOAA

FKYS 202300Z VRB02KT 2000 BR FEW010 25/24 Q1014 NOSIG


Station Type Date Time Source
FKYS Decoded METAR 2020/02/20 23:00 UTC NOAA

Yaounde, Cameroon (FKYS) 03-50N 011-31E 760M
Feb 20, 2020 - 06:00 PM EST / 2020.02.20 2300 UTC
Wind: Variable at 2 MPH (2 KT):0
Visibility: 1 mile(s):0
Sky conditions: mostly clear
Weather: mist
Temperature: 77 F (25 C)
Dew Point: 75 F (24 C)
Relative Humidity: 94%
Pressure (altimeter): 29.94 in. Hg (1014 hPa)
ob: FKYS 202300Z VRB02KT 2000 BR FEW010 25/24 Q1014 NOSIG
cycle: 23

Station Type Date Time Source
FKYS TAF 2020/02/20 18:03 UTC NOAA

TAF FKYS 201700Z 2018/2118 VRB04KT 2500 HZ FEW020
TEMPO 2102/2104 2000 BR BKN006
TEMPO 2105/2108 0800 FG FEW003 BKN006

Example: see airport list